Time;durP1;ratioP1;P1;durP2;ratioP2;P2;SDS_P1;SDS_P2;PMS_P1;PMS_P2;Temp;Humidity;BMP_temperature;BMP_pressure;BME280_temperature;BME280_humidity;BME280_pressure;Samples;Min_cycle;Max_cycle;Signal;HPM_P1;HPM_P2
2023/05/16 00:00:36;;;;;;;0.30;0.30;;;;;;;;;;5016318;28;58572;-62
2023/05/16 00:03:02;;;;;;;1.25;0.68;;;;;;;;;;5015609;28;58562;-61
2023/05/16 00:05:27;;;;;;;0.40;0.40;;;;;;;;;;5016784;28;58588;-62
2023/05/16 00:07:52;;;;;;;0.40;0.22;;;;;;;;;;5019994;28;58504;-61
2023/05/16 00:10:17;;;;;;;0.30;0.30;;;;;;;;;;5019574;28;58715;-61
2023/05/16 00:12:43;;;;;;;0.40;0.40;;;;;;;;;;5018421;28;58894;-61
2023/05/16 00:15:11;;;;;;;0.50;0.50;;;;;;;;;;5017809;28;58800;-59
2023/05/16 00:17:37;;;;;;;0.80;0.40;;;;;;;;;;5014637;28;59102;-60
2023/05/16 00:20:06;;;;;;;0.65;0.30;;;;;;;;;;5017006;28;58500;-62
2023/05/16 00:22:32;;;;;;;0.60;0.40;;;;;;;;;;5016927;28;57989;-58
2023/05/16 00:24:57;;;;;;;0.20;0.20;;;;;;;;;;5014249;28;58886;-62
2023/05/16 00:27:22;;;;;;;0.38;0.38;;;;;;;;;;5018318;28;58501;-62
2023/05/16 00:29:47;;;;;;;0.30;0.30;;;;;;;;;;5018279;28;58422;-60
2023/05/16 00:32:12;;;;;;;0.70;0.70;;;;;;;;;;5016453;28;60082;-60
2023/05/16 00:34:37;;;;;;;0.40;0.40;;;;;;;;;;5018054;28;58631;-61
2023/05/16 00:37:02;;;;;;;0.30;0.30;;;;;;;;;;5016850;28;58814;-62
2023/05/16 00:39:28;;;;;;;0.53;0.30;;;;;;;;;;5018289;28;58552;-61
2023/05/16 00:41:53;;;;;;;0.50;0.50;;;;;;;;;;5016790;28;58436;-58
2023/05/16 00:44:18;;;;;;;0.30;0.30;;;;;;;;;;5015503;28;58866;-61
2023/05/16 00:46:43;;;;;;;1.10;0.47;;;;;;;;;;5020456;28;58294;-60
2023/05/16 00:49:08;;;;;;;0.30;0.30;;;;;;;;;;5015917;28;59322;-62
2023/05/16 00:51:34;;;;;;;0.30;0.30;;;;;;;;;;5022981;28;58759;-62
2023/05/16 00:54:00;;;;;;;0.30;0.20;;;;;;;;;;5018655;28;58438;-60
2023/05/16 00:56:26;;;;;;;0.47;0.40;;;;;;;;;;5020659;28;58366;-61
2023/05/16 00:58:51;;;;;;;0.40;0.40;;;;;;;;;;5022380;28;58802;-62
2023/05/16 01:01:17;;;;;;;0.50;0.30;;;;;;;;;;5019068;28;58762;-59
2023/05/16 01:03:45;;;;;;;0.60;0.60;;;;;;;;;;5022373;28;58539;-62
2023/05/16 01:06:11;;;;;;;0.65;0.40;;;;;;;;;;5021655;28;58672;-61
2023/05/16 01:08:36;;;;;;;0.35;0.35;;;;;;;;;;5021005;28;58302;-62
2023/05/16 01:11:07;;;;;;;0.50;0.40;;;;;;;;;;5026177;28;58448;-62
2023/05/16 01:13:35;;;;;;;0.57;0.38;;;;;;;;;;5026523;28;58422;-62
2023/05/16 01:16:03;;;;;;;0.65;0.40;;;;;;;;;;5022495;28;58851;-59
2023/05/16 01:18:35;;;;;;;0.85;0.40;;;;;;;;;;5019400;28;58367;-62
2023/05/16 01:21:02;;;;;;;0.30;0.30;;;;;;;;;;5018569;28;58460;-61
2023/05/16 01:23:46;;;;;;;0.43;0.43;;;;;;;;;;5020691;28;59010;-62
2023/05/16 01:26:15;;;;;;;0.20;0.20;;;;;;;;;;5020231;28;59037;-61
2023/05/16 01:28:41;;;;;;;0.57;0.47;;;;;;;;;;5020214;28;58246;-62
2023/05/16 01:31:06;;;;;;;0.63;0.20;;;;;;;;;;5019587;28;58379;-62
2023/05/16 01:33:31;;;;;;;0.30;0.30;;;;;;;;;;5022797;28;58674;-61
2023/05/16 01:35:59;;;;;;;0.45;0.45;;;;;;;;;;5019368;28;58324;-61
2023/05/16 01:38:25;;;;;;;0.30;0.30;;;;;;;;;;5019374;28;58607;-58
2023/05/16 01:40:54;;;;;;;0.30;0.30;;;;;;;;;;5022803;28;58753;-61
2023/05/16 01:43:19;;;;;;;;;;;;;;;;;;5024479;28;58476;-62
2023/05/16 01:45:50;;;;;;;0.20;0.20;;;;;;;;;;5021404;28;58580;-59
2023/05/16 01:48:21;;;;;;;0.60;0.50;;;;;;;;;;5018680;28;58479;-60
2023/05/16 01:50:50;;;;;;;0.43;0.30;;;;;;;;;;5018382;28;58433;-62
2023/05/16 01:53:17;;;;;;;0.88;0.30;;;;;;;;;;5022186;28;58425;-61
2023/05/16 01:55:50;;;;;;;0.63;0.22;;;;;;;;;;5019660;28;58555;-61
2023/05/16 01:58:18;;;;;;;0.30;0.30;;;;;;;;;;5018073;28;58933;-62
2023/05/16 02:00:43;;;;;;;0.32;0.25;;;;;;;;;;5017324;28;58683;-62
2023/05/16 02:03:08;;;;;;;0.80;0.32;;;;;;;;;;5020826;28;59458;-62
2023/05/16 02:05:34;;;;;;;0.50;0.40;;;;;;;;;;5022144;28;58785;-62
2023/05/16 02:07:59;;;;;;;0.50;0.27;;;;;;;;;;5019252;28;58992;-62
2023/05/16 02:10:25;;;;;;;0.35;0.32;;;;;;;;;;5017306;28;58613;-62
2023/05/16 02:12:50;;;;;;;1.98;0.25;;;;;;;;;;5021225;28;58353;-62
2023/05/16 02:15:15;;;;;;;0.17;0.17;;;;;;;;;;5018724;28;58815;-58
2023/05/16 02:17:41;;;;;;;1.40;0.67;;;;;;;;;;5019278;28;58747;-61
2023/05/16 02:20:09;;;;;;;0.40;0.40;;;;;;;;;;5020772;28;58364;-62
2023/05/16 02:22:35;;;;;;;;;;;;;;;;;;5020205;28;58914;-62
2023/05/16 02:25:00;;;;;;;0.95;0.30;;;;;;;;;;5017388;28;58461;-61
2023/05/16 02:27:26;;;;;;;0.75;0.30;;;;;;;;;;5026587;28;58567;-62
2023/05/16 02:29:51;;;;;;;0.57;0.40;;;;;;;;;;5025081;28;58429;-62
2023/05/16 02:32:16;;;;;;;0.30;0.30;;;;;;;;;;5022654;28;58442;-62
2023/05/16 02:34:41;;;;;;;0.30;0.20;;;;;;;;;;5021240;28;60241;-62
2023/05/16 02:37:07;;;;;;;1.67;0.47;;;;;;;;;;5018888;28;59078;-61
2023/05/16 02:39:32;;;;;;;0.40;0.20;;;;;;;;;;5020575;28;58803;-62
2023/05/16 02:41:57;;;;;;;0.53;0.50;;;;;;;;;;5020333;28;58488;-61
2023/05/16 02:44:22;;;;;;;0.23;0.23;;;;;;;;;;5020473;28;58333;-62
2023/05/16 02:46:47;;;;;;;0.20;0.17;;;;;;;;;;5018594;28;58832;-61
2023/05/16 02:49:12;;;;;;;0.20;0.20;;;;;;;;;;5020587;28;58899;-62
2023/05/16 02:51:37;;;;;;;0.30;0.20;;;;;;;;;;5020154;28;58414;-61
2023/05/16 02:54:03;;;;;;;0.32;0.20;;;;;;;;;;5019376;28;59089;-62
2023/05/16 02:56:28;;;;;;;0.30;0.30;;;;;;;;;;5018392;28;58506;-62
2023/05/16 02:58:53;;;;;;;0.30;0.30;;;;;;;;;;5016911;28;58389;-60
2023/05/16 03:01:19;;;;;;;1.02;0.38;;;;;;;;;;5016406;28;59100;-62
2023/05/16 03:03:44;;;;;;;0.30;0.30;;;;;;;;;;5020442;28;58562;-58
2023/05/16 03:06:09;;;;;;;0.10;0.10;;;;;;;;;;5018509;28;58461;-61
2023/05/16 03:08:34;;;;;;;0.50;0.20;;;;;;;;;;5019861;28;59051;-62
2023/05/16 03:11:00;;;;;;;0.53;0.20;;;;;;;;;;5017332;28;58449;-62
2023/05/16 03:13:25;;;;;;;0.55;0.25;;;;;;;;;;5017205;28;58885;-60
2023/05/16 03:15:51;;;;;;;0.77;0.60;;;;;;;;;;5018974;28;58417;-60
2023/05/16 03:18:16;;;;;;;0.43;0.30;;;;;;;;;;5016519;28;58892;-62
2023/05/16 03:20:41;;;;;;;0.20;0.20;;;;;;;;;;5020717;28;58474;-62
2023/05/16 03:23:07;;;;;;;0.30;0.20;;;;;;;;;;5016499;28;58521;-62
2023/05/16 03:25:35;;;;;;;0.60;0.60;;;;;;;;;;5019776;28;58767;-62
2023/05/16 03:28:01;;;;;;;0.65;0.47;;;;;;;;;;5016934;28;59339;-61
2023/05/16 03:30:26;;;;;;;1.17;0.80;;;;;;;;;;5020413;28;58430;-62
2023/05/16 03:32:51;;;;;;;0.87;0.20;;;;;;;;;;5018395;28;58706;-59
2023/05/16 03:35:16;;;;;;;0.70;0.50;;;;;;;;;;5018873;28;58493;-62
2023/05/16 03:37:42;;;;;;;0.57;0.17;;;;;;;;;;5015090;28;58859;-62
2023/05/16 03:40:07;;;;;;;0.68;0.30;;;;;;;;;;5019900;28;58433;-61
2023/05/16 03:42:33;;;;;;;0.68;0.60;;;;;;;;;;5018860;28;58830;-62
2023/05/16 03:44:58;;;;;;;0.30;0.30;;;;;;;;;;5017282;28;58697;-62
2023/05/16 03:47:23;;;;;;;1.02;0.40;;;;;;;;;;5018748;28;58018;-61
2023/05/16 03:49:49;;;;;;;0.40;0.20;;;;;;;;;;5020367;28;59481;-62
2023/05/16 03:52:14;;;;;;;0.37;0.30;;;;;;;;;;5015780;28;58387;-62
2023/05/16 03:54:39;;;;;;;0.52;0.50;;;;;;;;;;5019338;28;58923;-62
2023/05/16 03:57:04;;;;;;;0.20;0.20;;;;;;;;;;5019704;28;58760;-62
2023/05/16 03:59:30;;;;;;;0.15;0.13;;;;;;;;;;5017287;28;59509;-61
2023/05/16 04:01:55;;;;;;;0.55;0.45;;;;;;;;;;5017651;28;58689;-62
2023/05/16 04:04:20;;;;;;;1.10;0.20;;;;;;;;;;5014949;28;58369;-62
2023/05/16 04:06:45;;;;;;;0.50;0.33;;;;;;;;;;5017361;28;58377;-62
2023/05/16 04:09:11;;;;;;;0.63;0.30;;;;;;;;;;5017710;28;58448;-62
2023/05/16 04:11:37;;;;;;;0.30;0.30;;;;;;;;;;5016387;28;58594;-59
2023/05/16 04:14:02;;;;;;;0.30;0.20;;;;;;;;;;5020165;28;58565;-62
2023/05/16 04:16:27;;;;;;;0.40;0.40;;;;;;;;;;5018428;28;58533;-61
2023/05/16 04:18:53;;;;;;;0.30;0.30;;;;;;;;;;5021615;28;58738;-60
2023/05/16 04:21:18;;;;;;;0.43;0.43;;;;;;;;;;5016665;28;58481;-59
2023/05/16 04:23:43;;;;;;;0.20;0.20;;;;;;;;;;5016927;28;58514;-62
2023/05/16 04:26:08;;;;;;;0.47;0.30;;;;;;;;;;5017839;28;58556;-62
2023/05/16 04:28:33;;;;;;;0.30;0.05;;;;;;;;;;5014215;28;58483;-62
2023/05/16 04:30:59;;;;;;;0.27;0.20;;;;;;;;;;5020462;28;58890;-58
2023/05/16 04:33:24;;;;;;;0.60;0.20;;;;;;;;;;5015916;28;59056;-61
2023/05/16 04:35:49;;;;;;;0.70;0.70;;;;;;;;;;5015050;28;58910;-60
2023/05/16 04:38:15;;;;;;;0.20;0.20;;;;;;;;;;5019651;28;59551;-61
2023/05/16 04:40:42;;;;;;;0.60;0.30;;;;;;;;;;5018218;28;59032;-61
2023/05/16 04:43:08;;;;;;;0.75;0.75;;;;;;;;;;5019644;28;58409;-61
2023/05/16 04:45:33;;;;;;;2.20;0.63;;;;;;;;;;5014741;28;58864;-62
2023/05/16 04:47:58;;;;;;;4.70;1.17;;;;;;;;;;5015818;28;58369;-61
2023/05/16 04:50:23;;;;;;;3.93;1.10;;;;;;;;;;5018048;28;58728;-60
2023/05/16 04:52:48;;;;;;;3.30;1.57;;;;;;;;;;5017624;28;58852;-67
2023/05/16 04:55:13;;;;;;;3.37;1.50;;;;;;;;;;5012942;28;58665;-64
2023/05/16 04:57:39;;;;;;;4.20;0.70;;;;;;;;;;5017895;28;58497;-62
2023/05/16 05:00:07;;;;;;;3.93;1.30;;;;;;;;;;5016485;28;58716;-62
2023/05/16 05:02:32;;;;;;;3.03;0.77;;;;;;;;;;5022085;28;58785;-62
2023/05/16 05:04:58;;;;;;;1.23;0.50;;;;;;;;;;5025925;28;58377;-61
2023/05/16 05:07:26;;;;;;;4.53;0.73;;;;;;;;;;5021920;28;58569;-62
2023/05/16 05:09:54;;;;;;;3.17;0.70;;;;;;;;;;5025420;28;58560;-62
2023/05/16 05:12:19;;;;;;;1.55;0.40;;;;;;;;;;5024469;28;58426;-61
2023/05/16 05:14:45;;;;;;;1.30;0.52;;;;;;;;;;5025776;28;58855;-61
2023/05/16 05:17:10;;;;;;;3.60;0.80;;;;;;;;;;5024390;28;58919;-61
2023/05/16 05:19:35;;;;;;;4.10;1.07;;;;;;;;;;5023946;28;58810;-61
2023/05/16 05:22:00;;;;;;;2.13;0.90;;;;;;;;;;5026835;28;58282;-62
2023/05/16 05:24:25;;;;;;;0.88;0.40;;;;;;;;;;5026571;28;58223;-61
2023/05/16 05:26:51;;;;;;;4.28;1.10;;;;;;;;;;5024212;28;59000;-62
2023/05/16 05:29:16;;;;;;;1.48;0.82;;;;;;;;;;5025162;28;58358;-62
2023/05/16 05:31:41;;;;;;;1.50;0.73;;;;;;;;;;5024832;28;58269;-62
2023/05/16 05:34:06;;;;;;;3.00;0.77;;;;;;;;;;5023006;28;58287;-62
2023/05/16 05:36:31;;;;;;;2.50;0.90;;;;;;;;;;5028060;28;58529;-61
2023/05/16 05:38:56;;;;;;;1.45;0.60;;;;;;;;;;5030619;28;58440;-62
2023/05/16 05:41:21;;;;;;;2.30;0.87;;;;;;;;;;5028485;28;58449;-61
2023/05/16 05:43:47;;;;;;;2.63;0.73;;;;;;;;;;5030917;28;58469;-62
2023/05/16 05:46:12;;;;;;;3.35;1.40;;;;;;;;;;5027446;28;58934;-62
2023/05/16 05:48:37;;;;;;;2.45;0.50;;;;;;;;;;5027617;28;58683;-62
2023/05/16 05:51:02;;;;;;;3.20;0.83;;;;;;;;;;5028432;28;58615;-62
2023/05/16 05:53:27;;;;;;;4.40;0.67;;;;;;;;;;5029176;28;58584;-61
2023/05/16 05:55:52;;;;;;;2.77;0.80;;;;;;;;;;5030459;28;58762;-57
2023/05/16 05:58:18;;;;;;;2.70;0.70;;;;;;;;;;5029187;28;59062;-61
2023/05/16 06:00:43;;;;;;;1.10;0.63;;;;;;;;;;5026304;28;58211;-61
2023/05/16 06:03:08;;;;;;;1.88;0.60;;;;;;;;;;5025642;28;59008;-61
2023/05/16 06:05:34;;;;;;;1.25;0.68;;;;;;;;;;5029202;28;58811;-62
2023/05/16 06:07:59;;;;;;;2.53;1.53;;;;;;;;;;5029691;28;58320;-62
2023/05/16 06:10:24;;;;;;;3.93;1.10;;;;;;;;;;5029786;28;58388;-61
2023/05/16 06:12:49;;;;;;;1.20;0.67;;;;;;;;;;5028889;28;58725;-61
2023/05/16 06:15:15;;;;;;;1.47;0.93;;;;;;;;;;5028235;28;58807;-62
2023/05/16 06:17:40;;;;;;;0.77;0.60;;;;;;;;;;5025805;28;58849;-61
2023/05/16 06:20:06;;;;;;;1.27;0.45;;;;;;;;;;5028292;28;58807;-61
2023/05/16 06:22:31;;;;;;;2.13;0.63;;;;;;;;;;5030731;28;58650;-60
2023/05/16 06:24:56;;;;;;;1.23;0.77;;;;;;;;;;5028213;28;58481;-61
2023/05/16 06:27:21;;;;;;;2.10;1.00;;;;;;;;;;5028820;28;58981;-61
2023/05/16 06:29:47;;;;;;;3.55;1.42;;;;;;;;;;5027408;28;58577;-62
2023/05/16 06:32:12;;;;;;;3.87;1.10;;;;;;;;;;5028554;28;58375;-62
2023/05/16 06:34:37;;;;;;;1.67;1.17;;;;;;;;;;5027118;28;58235;-61
2023/05/16 06:37:02;;;;;;;1.42;0.82;;;;;;;;;;5028907;28;58764;-61
2023/05/16 06:39:27;;;;;;;3.17;1.53;;;;;;;;;;5027556;28;58632;-59
2023/05/16 06:41:52;;;;;;;3.47;1.90;;;;;;;;;;5028811;28;58449;-61
2023/05/16 06:44:18;;;;;;;1.58;0.93;;;;;;;;;;5027149;28;58744;-61
2023/05/16 06:46:43;;;;;;;2.30;1.17;;;;;;;;;;5028228;28;58364;-62
2023/05/16 06:49:08;;;;;;;1.37;0.53;;;;;;;;;;5028068;28;58841;-61
2023/05/16 06:51:33;;;;;;;3.00;1.17;;;;;;;;;;5027743;28;58630;-61
2023/05/16 06:53:58;;;;;;;1.63;0.50;;;;;;;;;;5024369;28;58461;-61
2023/05/16 06:56:23;;;;;;;2.42;0.82;;;;;;;;;;5028655;28;58766;-61
2023/05/16 06:58:49;;;;;;;2.78;1.20;;;;;;;;;;5027815;28;58764;-62
2023/05/16 07:01:14;;;;;;;2.08;0.82;;;;;;;;;;5027537;28;58718;-62
2023/05/16 07:03:40;;;;;;;3.05;0.95;;;;;;;;;;5026487;28;59085;-61
2023/05/16 07:06:05;;;;;;;3.47;0.83;;;;;;;;;;5028213;28;58768;-62
2023/05/16 07:08:30;;;;;;;1.00;0.60;;;;;;;;;;5026519;28;58430;-62
2023/05/16 07:10:55;;;;;;;1.88;0.80;;;;;;;;;;5028379;28;58362;-57
2023/05/16 07:13:20;;;;;;;1.35;0.57;;;;;;;;;;5026694;28;58275;-61
2023/05/16 07:15:45;;;;;;;1.73;0.60;;;;;;;;;;5027758;28;58374;-61
2023/05/16 07:18:11;;;;;;;1.30;1.10;;;;;;;;;;5026777;28;59018;-62
2023/05/16 07:20:36;;;;;;;2.40;0.63;;;;;;;;;;5028352;28;58349;-62
2023/05/16 07:23:01;;;;;;;1.42;0.60;;;;;;;;;;5027155;28;58772;-62
2023/05/16 07:25:26;;;;;;;2.07;1.00;;;;;;;;;;5026867;28;58529;-61
2023/05/16 07:27:51;;;;;;;0.98;0.50;;;;;;;;;;5027683;28;58374;-60
2023/05/16 07:30:17;;;;;;;3.73;0.83;;;;;;;;;;5026286;28;58757;-62
2023/05/16 07:32:42;;;;;;;1.58;1.23;;;;;;;;;;5027989;28;58848;-61
2023/05/16 07:35:08;;;;;;;1.20;0.57;;;;;;;;;;5026414;28;58350;-62
2023/05/16 07:37:33;;;;;;;2.60;1.10;;;;;;;;;;5025360;28;59368;-62
2023/05/16 07:39:58;;;;;;;0.87;0.47;;;;;;;;;;5027920;28;58306;-61
2023/05/16 07:42:24;;;;;;;1.73;0.80;;;;;;;;;;5026263;28;58471;-61
2023/05/16 07:44:49;;;;;;;2.33;0.60;;;;;;;;;;5027027;28;58426;-62
2023/05/16 07:47:14;;;;;;;0.70;0.67;;;;;;;;;;5028247;28;58279;-62
2023/05/16 07:49:40;;;;;;;2.03;0.73;;;;;;;;;;5027492;28;59149;-62
2023/05/16 07:52:05;;;;;;;0.75;0.50;;;;;;;;;;5026056;28;58986;-62
2023/05/16 07:54:32;;;;;;;0.98;0.55;;;;;;;;;;5027130;28;58163;-61
2023/05/16 07:56:57;;;;;;;0.88;0.52;;;;;;;;;;5027128;28;58711;-61
2023/05/16 07:59:22;;;;;;;1.23;0.67;;;;;;;;;;5026235;28;58521;-61
2023/05/16 08:01:47;;;;;;;3.03;0.90;;;;;;;;;;5026262;28;58419;-62
2023/05/16 08:04:13;;;;;;;1.53;0.70;;;;;;;;;;5024858;28;58871;-62
2023/05/16 08:06:38;;;;;;;0.82;0.68;;;;;;;;;;5027016;28;58410;-61
2023/05/16 08:09:03;;;;;;;0.57;0.55;;;;;;;;;;5025903;28;58498;-62
2023/05/16 08:11:28;;;;;;;1.60;0.80;;;;;;;;;;5026838;28;58692;-62
2023/05/16 08:13:53;;;;;;;2.30;0.88;;;;;;;;;;5027481;28;58398;-59
2023/05/16 08:16:18;;;;;;;1.90;1.07;;;;;;;;;;5024555;28;58676;-62
2023/05/16 08:18:44;;;;;;;0.77;0.40;;;;;;;;;;5026661;28;58738;-61
2023/05/16 08:21:09;;;;;;;1.43;0.57;;;;;;;;;;5024862;28;59206;-62
2023/05/16 08:23:35;;;;;;;1.87;0.50;;;;;;;;;;5025368;28;58577;-62
2023/05/16 08:26:00;;;;;;;1.55;0.60;;;;;;;;;;5027586;28;58355;-62
2023/05/16 08:28:25;;;;;;;1.33;0.43;;;;;;;;;;5027081;28;60102;-58
2023/05/16 08:30:50;;;;;;;1.63;0.60;;;;;;;;;;5026968;28;58700;-61
2023/05/16 08:33:15;;;;;;;1.48;0.45;;;;;;;;;;5025821;28;58965;-60
2023/05/16 08:35:41;;;;;;;2.00;1.08;;;;;;;;;;5024556;28;58747;-62
2023/05/16 08:38:06;;;;;;;0.80;0.45;;;;;;;;;;5026786;28;58762;-62
2023/05/16 08:40:32;;;;;;;2.47;0.60;;;;;;;;;;5025754;28;58282;-62
2023/05/16 08:42:57;;;;;;;1.48;0.43;;;;;;;;;;5026151;28;58487;-62
2023/05/16 08:45:22;;;;;;;3.00;0.43;;;;;;;;;;5027009;28;58334;-62
2023/05/16 08:47:48;;;;;;;1.17;0.50;;;;;;;;;;5024331;28;58865;-61
2023/05/16 08:50:14;;;;;;;0.95;0.60;;;;;;;;;;5027087;28;58971;-61
2023/05/16 08:52:41;;;;;;;0.32;0.25;;;;;;;;;;5024913;28;58464;-62
2023/05/16 08:55:08;;;;;;;1.23;0.40;;;;;;;;;;5025199;28;58614;-62
2023/05/16 08:57:33;;;;;;;0.43;0.30;;;;;;;;;;5026969;28;58761;-60
2023/05/16 08:59:59;;;;;;;0.98;0.85;;;;;;;;;;5026203;28;58454;-62
2023/05/16 09:02:24;;;;;;;0.90;0.40;;;;;;;;;;5022776;28;58427;-61
2023/05/16 09:04:50;;;;;;;0.70;0.50;;;;;;;;;;5027490;28;58813;-61
2023/05/16 09:07:15;;;;;;;0.47;0.47;;;;;;;;;;5026700;28;58850;-62
2023/05/16 09:09:41;;;;;;;0.68;0.38;;;;;;;;;;5024607;28;59221;-62
2023/05/16 09:12:06;;;;;;;0.63;0.40;;;;;;;;;;5029661;28;58358;-62
2023/05/16 09:14:31;;;;;;;0.57;0.40;;;;;;;;;;5030038;28;58623;-61
2023/05/16 09:17:07;;;;;;;0.65;0.35;;;;;;;;;;5029291;28;58394;-62
2023/05/16 09:19:42;;;;;;;1.60;0.50;;;;;;;;;;5029149;28;58835;-61
2023/05/16 09:22:11;;;;;;;1.83;0.68;;;;;;;;;;5029022;28;58367;-62
2023/05/16 09:24:42;;;;;;;1.40;0.60;;;;;;;;;;5029931;28;58337;-61
2023/05/16 09:27:11;;;;;;;0.70;0.43;;;;;;;;;;5029845;28;58354;-62
2023/05/16 09:29:39;;;;;;;1.42;0.40;;;;;;;;;;5026506;28;58597;-62
2023/05/16 09:32:08;;;;;;;0.67;0.60;;;;;;;;;;5030610;28;58430;-62
2023/05/16 09:34:36;;;;;;;0.80;0.30;;;;;;;;;;5027393;28;59215;-62
2023/05/16 09:37:01;;;;;;;0.98;0.55;;;;;;;;;;5030702;28;58674;-61
2023/05/16 09:39:27;;;;;;;0.45;0.32;;;;;;;;;;5029845;28;58202;-62
2023/05/16 09:41:52;;;;;;;2.28;1.02;;;;;;;;;;5028566;28;59597;-62
2023/05/16 09:44:18;;;;;;;0.43;0.33;;;;;;;;;;5028509;28;58645;-61
2023/05/16 09:46:43;;;;;;;0.93;0.20;;;;;;;;;;5028790;28;58330;-62
2023/05/16 09:49:11;;;;;;;0.30;0.20;;;;;;;;;;5028306;28;58572;-62
2023/05/16 09:51:36;;;;;;;0.30;0.30;;;;;;;;;;5030688;28;58728;-62
2023/05/16 09:54:01;;;;;;;0.70;0.30;;;;;;;;;;5028225;28;58995;-61
2023/05/16 09:56:28;;;;;;;0.93;0.30;;;;;;;;;;5028061;28;58477;-62
2023/05/16 09:58:54;;;;;;;0.98;0.57;;;;;;;;;;5026743;28;58487;-61
2023/05/16 10:01:19;;;;;;;0.77;0.40;;;;;;;;;;5026937;28;58567;-62
2023/05/16 10:03:44;;;;;;;0.80;0.30;;;;;;;;;;5027299;28;58471;-61
2023/05/16 10:06:11;;;;;;;0.77;0.40;;;;;;;;;;5029462;28;58665;-62
2023/05/16 10:08:37;;;;;;;0.57;0.30;;;;;;;;;;5025520;28;58479;-61
2023/05/16 10:11:03;;;;;;;0.75;0.30;;;;;;;;;;5031045;28;58808;-62
2023/05/16 10:13:29;;;;;;;0.45;0.45;;;;;;;;;;5024876;28;58908;-61
2023/05/16 10:15:55;;;;;;;0.20;0.20;;;;;;;;;;5028318;28;58722;-60
2023/05/16 10:18:21;;;;;;;1.23;0.75;;;;;;;;;;5029767;28;58755;-61
2023/05/16 10:20:48;;;;;;;0.90;0.20;;;;;;;;;;5028462;28;58652;-61
2023/05/16 10:23:17;;;;;;;0.63;0.40;;;;;;;;;;5028408;28;58846;-61
2023/05/16 10:25:43;;;;;;;0.40;0.25;;;;;;;;;;5028348;28;58661;-62
2023/05/16 10:28:08;;;;;;;0.90;0.30;;;;;;;;;;5026347;28;58892;-62
2023/05/16 10:30:34;;;;;;;0.40;0.40;;;;;;;;;;5028339;28;58942;-61
2023/05/16 10:33:00;;;;;;;0.55;0.55;;;;;;;;;;5028257;28;58371;-61
2023/05/16 10:35:26;;;;;;;0.55;0.30;;;;;;;;;;5027910;28;58582;-61
2023/05/16 10:37:51;;;;;;;0.93;0.30;;;;;;;;;;5030202;28;58430;-61
2023/05/16 10:40:17;;;;;;;0.60;0.40;;;;;;;;;;5027727;28;60324;-62
2023/05/16 10:43:02;;;;;;;0.88;0.35;;;;;;;;;;5028328;28;58789;-62
2023/05/16 10:45:28;;;;;;;0.22;0.20;;;;;;;;;;5026734;28;59866;-61
2023/05/16 10:47:57;;;;;;;0.20;0.20;;;;;;;;;;5027448;28;58286;-57
2023/05/16 10:50:32;;;;;;;0.20;0.20;;;;;;;;;;5028826;28;58191;-61
2023/05/16 10:53:11;;;;;;;1.02;0.40;;;;;;;;;;5028996;28;58256;-61
2023/05/16 10:55:37;;;;;;;0.32;0.30;;;;;;;;;;5024272;28;58948;-62
2023/05/16 10:58:03;;;;;;;2.20;0.98;;;;;;;;;;5028873;28;58707;-62
2023/05/16 11:00:29;;;;;;;0.43;0.20;;;;;;;;;;5027248;28;58262;-62
2023/05/16 11:03:03;;;;;;;0.63;0.20;;;;;;;;;;5028930;28;59343;-62
2023/05/16 11:05:28;;;;;;;1.67;0.20;;;;;;;;;;5027865;28;58267;-61
2023/05/16 11:08:03;;;;;;;0.80;0.80;;;;;;;;;;5026642;28;58698;-62
2023/05/16 11:10:28;;;;;;;0.68;0.25;;;;;;;;;;5027779;28;58465;-62
2023/05/16 11:12:54;;;;;;;0.30;0.30;;;;;;;;;;5025924;28;58385;-62
2023/05/16 11:15:22;;;;;;;0.38;0.28;;;;;;;;;;5027629;28;58330;-62
2023/05/16 11:17:47;;;;;;;0.35;0.35;;;;;;;;;;5028310;28;58410;-62
2023/05/16 11:20:26;;;;;;;0.20;0.20;;;;;;;;;;5027373;28;59290;-61
2023/05/16 11:23:11;;;;;;;0.40;0.20;;;;;;;;;;5027350;28;62463;-61
2023/05/16 11:25:40;;;;;;;0.50;0.28;;;;;;;;;;5027846;28;58431;-61
2023/05/16 11:28:06;;;;;;;0.35;0.17;;;;;;;;;;5026546;28;58450;-62
2023/05/16 11:30:32;;;;;;;0.50;0.47;;;;;;;;;;5025936;28;58367;-61
2023/05/16 11:32:57;;;;;;;1.03;0.40;;;;;;;;;;5027865;28;58696;-62
2023/05/16 11:35:22;;;;;;;0.82;0.52;;;;;;;;;;5026279;28;59335;-62
2023/05/16 11:37:47;;;;;;;0.22;0.10;;;;;;;;;;5026363;28;58807;-62
2023/05/16 11:40:13;;;;;;;0.52;0.20;;;;;;;;;;5027778;28;58453;-62
2023/05/16 11:42:40;;;;;;;0.30;0.10;;;;;;;;;;5024194;28;58302;-61
2023/05/16 11:45:06;;;;;;;0.28;0.20;;;;;;;;;;5025907;28;58476;-61
2023/05/16 11:47:32;;;;;;;0.17;0.10;;;;;;;;;;5028006;28;58708;-62
2023/05/16 11:49:57;;;;;;;0.40;0.40;;;;;;;;;;5028083;28;58366;-62
2023/05/16 11:52:22;;;;;;;0.88;0.28;;;;;;;;;;5026036;28;59086;-62
2023/05/16 11:54:48;;;;;;;0.57;0.20;;;;;;;;;;5026572;28;58720;-65
2023/05/16 11:57:13;;;;;;;0.30;0.23;;;;;;;;;;5026709;28;58403;-61
2023/05/16 11:59:38;;;;;;;1.20;0.30;;;;;;;;;;5027854;28;58939;-68
2023/05/16 12:02:04;;;;;;;0.10;0.10;;;;;;;;;;5023841;28;58572;-62
2023/05/16 12:04:30;;;;;;;0.20;0.10;;;;;;;;;;5027145;28;58396;-60
2023/05/16 12:07:02;;;;;;;0.03;0.03;;;;;;;;;;5024476;28;59010;-61
2023/05/16 12:09:28;;;;;;;0.98;0.35;;;;;;;;;;5018079;28;58387;-62
2023/05/16 12:11:53;;;;;;;2.43;0.50;;;;;;;;;;5023998;28;58412;-63
2023/05/16 12:14:18;;;;;;;2.10;0.60;;;;;;;;;;5025763;28;58549;-62
2023/05/16 12:16:45;;;;;;;4.13;1.08;;;;;;;;;;5027396;28;58719;-61
2023/05/16 12:19:10;;;;;;;4.35;1.13;;;;;;;;;;5027622;28;58893;-62
2023/05/16 12:21:36;;;;;;;5.82;1.05;;;;;;;;;;5025516;28;58382;-61
2023/05/16 12:24:02;;;;;;;3.38;1.00;;;;;;;;;;5027095;28;58592;-62
2023/05/16 12:26:29;;;;;;;4.30;1.10;;;;;;;;;;5027512;28;58350;-62
2023/05/16 12:29:02;;;;;;;1.30;0.77;;;;;;;;;;5028164;28;58523;-62
2023/05/16 12:31:35;;;;;;;2.97;0.63;;;;;;;;;;5026536;28;59244;-61
2023/05/16 12:34:01;;;;;;;1.50;0.40;;;;;;;;;;5026193;28;58691;-62
2023/05/16 12:36:30;;;;;;;1.50;0.50;;;;;;;;;;5026882;28;58595;-62
2023/05/16 12:38:58;;;;;;;4.20;1.13;;;;;;;;;;5027001;28;59717;-59
2023/05/16 12:41:23;;;;;;;1.52;0.90;;;;;;;;;;5024840;28;58707;-62
2023/05/16 12:43:49;;;;;;;2.30;0.45;;;;;;;;;;5028163;28;59158;-63
2023/05/16 12:46:14;;;;;;;3.50;0.63;;;;;;;;;;5028161;28;59174;-64
2023/05/16 12:48:41;;;;;;;4.97;1.02;;;;;;;;;;5029563;28;58764;-64
2023/05/16 12:51:11;;;;;;;3.30;0.47;;;;;;;;;;5030995;28;58482;-64
2023/05/16 12:53:47;;;;;;;2.97;0.73;;;;;;;;;;5027777;28;58887;-64
2023/05/16 12:56:12;;;;;;;0.85;0.70;;;;;;;;;;5030918;28;58791;-63
2023/05/16 12:58:38;;;;;;;2.13;0.52;;;;;;;;;;5030422;28;59423;-62
2023/05/16 13:01:04;;;;;;;3.63;0.60;;;;;;;;;;5027375;28;58323;-64
2023/05/16 13:03:29;;;;;;;1.20;0.47;;;;;;;;;;5030156;28;58811;-63
2023/05/16 13:05:54;;;;;;;2.00;0.40;;;;;;;;;;5031031;28;58369;-64
2023/05/16 13:08:20;;;;;;;0.93;0.40;;;;;;;;;;5029761;28;58740;-63
2023/05/16 13:10:45;;;;;;;5.30;0.47;;;;;;;;;;5031103;28;58705;-64
2023/05/16 13:13:10;;;;;;;2.05;0.45;;;;;;;;;;5030755;28;58459;-64
2023/05/16 13:15:36;;;;;;;0.73;0.40;;;;;;;;;;5030298;28;58657;-63
2023/05/16 13:18:01;;;;;;;2.33;0.50;;;;;;;;;;5028114;28;58350;-64
2023/05/16 13:20:27;;;;;;;1.60;0.30;;;;;;;;;;5028852;28;58677;-64
2023/05/16 13:22:52;;;;;;;3.22;0.55;;;;;;;;;;5022870;28;58486;-59
2023/05/16 13:25:18;;;;;;;0.93;0.60;;;;;;;;;;5025631;28;58654;-61
2023/05/16 13:27:43;;;;;;;3.37;0.50;;;;;;;;;;5026887;28;58631;-62
2023/05/16 13:30:08;;;;;;;2.15;0.30;;;;;;;;;;5022095;28;58567;-62
2023/05/16 13:32:33;;;;;;;3.43;0.87;;;;;;;;;;5026447;28;58603;-62
2023/05/16 13:34:58;;;;;;;4.57;0.60;;;;;;;;;;5028654;28;58710;-62
2023/05/16 13:37:23;;;;;;;3.65;0.75;;;;;;;;;;5029145;28;58754;-59
2023/05/16 13:39:49;;;;;;;4.72;0.60;;;;;;;;;;5025529;28;58883;-63
2023/05/16 13:42:14;;;;;;;2.58;0.50;;;;;;;;;;5028769;28;58712;-62
2023/05/16 13:44:40;;;;;;;2.53;1.15;;;;;;;;;;5028110;28;59076;-62
2023/05/16 13:47:05;;;;;;;2.13;0.30;;;;;;;;;;5026760;28;58471;-63
2023/05/16 13:49:30;;;;;;;3.63;0.73;;;;;;;;;;5026896;28;58350;-62
2023/05/16 13:51:57;;;;;;;1.73;0.80;;;;;;;;;;5025443;28;58239;-60
2023/05/16 13:54:22;;;;;;;2.88;0.73;;;;;;;;;;5026607;28;58866;-62
2023/05/16 13:56:47;;;;;;;3.23;1.17;;;;;;;;;;5029014;28;58394;-63
2023/05/16 13:59:13;;;;;;;4.32;0.82;;;;;;;;;;5026332;28;58458;-62
2023/05/16 14:01:38;;;;;;;7.60;0.73;;;;;;;;;;5025017;28;58386;-62
2023/05/16 14:04:03;;;;;;;4.00;1.60;;;;;;;;;;5028017;28;58651;-62
2023/05/16 14:06:29;;;;;;;3.60;1.13;;;;;;;;;;5027056;28;58912;-62
2023/05/16 14:08:55;;;;;;;2.20;0.77;;;;;;;;;;5027574;28;58491;-62
2023/05/16 14:11:25;;;;;;;2.70;1.00;;;;;;;;;;5028076;28;58957;-62
2023/05/16 14:13:50;;;;;;;4.38;1.38;;;;;;;;;;5027523;28;58749;-62
2023/05/16 14:16:15;;;;;;;3.13;0.60;;;;;;;;;;5027796;28;58423;-63
2023/05/16 14:18:40;;;;;;;2.80;0.70;;;;;;;;;;5027447;28;58343;-62
2023/05/16 14:21:05;;;;;;;3.10;0.60;;;;;;;;;;5027899;28;58506;-63
2023/05/16 14:23:30;;;;;;;5.57;1.23;;;;;;;;;;5027861;28;59190;-62
2023/05/16 14:25:56;;;;;;;1.93;0.50;;;;;;;;;;5028537;28;58939;-58
2023/05/16 14:28:21;;;;;;;2.80;0.60;;;;;;;;;;5026565;28;58380;-62
2023/05/16 14:30:46;;;;;;;1.77;0.70;;;;;;;;;;5027252;28;58918;-62
2023/05/16 14:33:11;;;;;;;2.23;0.90;;;;;;;;;;5026876;28;58678;-62
2023/05/16 14:35:39;;;;;;;9.63;0.70;;;;;;;;;;5026717;28;58728;-63